sensor_id;sensor_type;location;lat;lon;timestamp;temperature;humidity
73277;DHT22;61501;43.316;5.372;2023-05-10T00:01:40;16.90;99.90
73277;DHT22;61501;43.316;5.372;2023-05-10T00:04:05;16.90;99.90
73277;DHT22;61501;43.316;5.372;2023-05-10T00:06:31;16.90;99.90
73277;DHT22;61501;43.316;5.372;2023-05-10T00:08:57;16.80;99.90
73277;DHT22;61501;43.316;5.372;2023-05-10T00:11:23;16.80;99.90
73277;DHT22;61501;43.316;5.372;2023-05-10T00:13:49;16.80;99.90
73277;DHT22;61501;43.316;5.372;2023-05-10T00:16:14;16.80;99.90
73277;DHT22;61501;43.316;5.372;2023-05-10T00:18:40;16.80;99.90
73277;DHT22;61501;43.316;5.372;2023-05-10T00:21:06;16.80;99.90
73277;DHT22;61501;43.316;5.372;2023-05-10T00:23:31;16.80;99.90
73277;DHT22;61501;43.316;5.372;2023-05-10T00:25:57;16.80;99.90
73277;DHT22;61501;43.316;5.372;2023-05-10T00:28:23;16.80;99.90
73277;DHT22;61501;43.316;5.372;2023-05-10T00:30:48;16.70;99.90
73277;DHT22;61501;43.316;5.372;2023-05-10T00:33:14;16.70;99.90
73277;DHT22;61501;43.316;5.372;2023-05-10T00:35:39;16.70;99.90
73277;DHT22;61501;43.316;5.372;2023-05-10T00:38:05;16.70;99.90
73277;DHT22;61501;43.316;5.372;2023-05-10T00:40:31;16.60;99.90
73277;DHT22;61501;43.316;5.372;2023-05-10T00:42:57;16.60;99.90
73277;DHT22;61501;43.316;5.372;2023-05-10T00:45:23;16.60;99.90
73277;DHT22;61501;43.316;5.372;2023-05-10T00:47:50;16.60;99.90
73277;DHT22;61501;43.316;5.372;2023-05-10T00:50:17;16.70;99.90
73277;DHT22;61501;43.316;5.372;2023-05-10T00:52:43;16.70;99.90
73277;DHT22;61501;43.316;5.372;2023-05-10T00:55:10;16.70;99.90
73277;DHT22;61501;43.316;5.372;2023-05-10T00:57:37;16.70;99.90
73277;DHT22;61501;43.316;5.372;2023-05-10T01:00:03;16.70;99.90
73277;DHT22;61501;43.316;5.372;2023-05-10T01:02:29;16.60;99.90
73277;DHT22;61501;43.316;5.372;2023-05-10T01:04:55;16.60;99.90
73277;DHT22;61501;43.316;5.372;2023-05-10T01:07:20;16.60;99.90
73277;DHT22;61501;43.316;5.372;2023-05-10T01:09:46;16.60;99.90
73277;DHT22;61501;43.316;5.372;2023-05-10T01:12:12;16.60;99.90
73277;DHT22;61501;43.316;5.372;2023-05-10T01:14:38;16.60;99.90
73277;DHT22;61501;43.316;5.372;2023-05-10T01:17:05;16.60;99.90
73277;DHT22;61501;43.316;5.372;2023-05-10T01:19:34;16.60;99.90
73277;DHT22;61501;43.316;5.372;2023-05-10T01:30:24;16.60;99.90
73277;DHT22;61501;43.316;5.372;2023-05-10T01:33:21;16.50;99.90
73277;DHT22;61501;43.316;5.372;2023-05-10T01:36:01;16.50;99.90
73277;DHT22;61501;43.316;5.372;2023-05-10T01:38:36;16.50;99.90
73277;DHT22;61501;43.316;5.372;2023-05-10T01:42:02;16.50;99.90
73277;DHT22;61501;43.316;5.372;2023-05-10T01:47:06;16.50;99.90
73277;DHT22;61501;43.316;5.372;2023-05-10T01:49:39;16.50;99.90
73277;DHT22;61501;43.316;5.372;2023-05-10T01:52:11;16.50;99.90
73277;DHT22;61501;43.316;5.372;2023-05-10T01:54:42;16.50;99.90
73277;DHT22;61501;43.316;5.372;2023-05-10T01:57:11;16.50;99.90
73277;DHT22;61501;43.316;5.372;2023-05-10T01:59:40;16.60;99.90
73277;DHT22;61501;43.316;5.372;2023-05-10T02:02:08;16.60;99.90
73277;DHT22;61501;43.316;5.372;2023-05-10T02:04:39;16.60;99.90
73277;DHT22;61501;43.316;5.372;2023-05-10T02:07:06;16.60;99.90
73277;DHT22;61501;43.316;5.372;2023-05-10T02:09:34;16.60;99.90
73277;DHT22;61501;43.316;5.372;2023-05-10T02:12:02;16.70;99.90
73277;DHT22;61501;43.316;5.372;2023-05-10T02:14:30;16.70;99.90
73277;DHT22;61501;43.316;5.372;2023-05-10T02:16:58;16.70;99.90
73277;DHT22;61501;43.316;5.372;2023-05-10T02:19:26;16.70;99.90
73277;DHT22;61501;43.316;5.372;2023-05-10T02:21:55;16.70;99.90
73277;DHT22;61501;43.316;5.372;2023-05-10T02:24:21;16.70;99.90
73277;DHT22;61501;43.316;5.372;2023-05-10T02:26:49;16.70;99.90
73277;DHT22;61501;43.316;5.372;2023-05-10T02:29:16;16.70;99.90
73277;DHT22;61501;43.316;5.372;2023-05-10T02:31:43;16.60;99.90
73277;DHT22;61501;43.316;5.372;2023-05-10T02:34:10;16.70;99.90
73277;DHT22;61501;43.316;5.372;2023-05-10T02:36:38;16.70;99.90
73277;DHT22;61501;43.316;5.372;2023-05-10T02:39:05;16.70;99.90
73277;DHT22;61501;43.316;5.372;2023-05-10T02:41:35;16.70;99.90
73277;DHT22;61501;43.316;5.372;2023-05-10T02:44:02;16.70;99.90
73277;DHT22;61501;43.316;5.372;2023-05-10T02:46:29;16.70;99.90
73277;DHT22;61501;43.316;5.372;2023-05-10T02:48:55;16.70;99.90
73277;DHT22;61501;43.316;5.372;2023-05-10T02:51:23;16.70;99.90
73277;DHT22;61501;43.316;5.372;2023-05-10T02:53:51;16.70;99.90
73277;DHT22;61501;43.316;5.372;2023-05-10T02:56:25;16.70;99.90
73277;DHT22;61501;43.316;5.372;2023-05-10T02:58:54;16.80;99.90
73277;DHT22;61501;43.316;5.372;2023-05-10T03:01:20;16.80;99.90
73277;DHT22;61501;43.316;5.372;2023-05-10T03:03:46;16.70;99.90
73277;DHT22;61501;43.316;5.372;2023-05-10T03:06:11;16.70;99.90
73277;DHT22;61501;43.316;5.372;2023-05-10T03:08:37;16.70;99.90
73277;DHT22;61501;43.316;5.372;2023-05-10T03:16:41;16.70;99.90
73277;DHT22;61501;43.316;5.372;2023-05-10T03:20:03;16.70;99.90
73277;DHT22;61501;43.316;5.372;2023-05-10T03:22:44;16.70;99.90
73277;DHT22;61501;43.316;5.372;2023-05-10T03:25:11;16.70;99.90
73277;DHT22;61501;43.316;5.372;2023-05-10T03:27:40;16.70;99.90
73277;DHT22;61501;43.316;5.372;2023-05-10T03:30:08;16.60;99.90
73277;DHT22;61501;43.316;5.372;2023-05-10T03:32:35;16.60;99.90
73277;DHT22;61501;43.316;5.372;2023-05-10T03:35:07;16.60;99.90
73277;DHT22;61501;43.316;5.372;2023-05-10T03:37:32;16.60;99.90
73277;DHT22;61501;43.316;5.372;2023-05-10T03:39:58;16.50;99.90
73277;DHT22;61501;43.316;5.372;2023-05-10T03:42:24;16.50;99.90
73277;DHT22;61501;43.316;5.372;2023-05-10T03:44:49;16.50;99.90
73277;DHT22;61501;43.316;5.372;2023-05-10T03:47:15;16.50;99.90
73277;DHT22;61501;43.316;5.372;2023-05-10T03:49:41;16.50;99.90
73277;DHT22;61501;43.316;5.372;2023-05-10T03:52:06;16.50;99.90
73277;DHT22;61501;43.316;5.372;2023-05-10T03:54:32;16.50;99.90
73277;DHT22;61501;43.316;5.372;2023-05-10T03:56:58;16.40;99.90
73277;DHT22;61501;43.316;5.372;2023-05-10T03:59:23;16.40;99.90
73277;DHT22;61501;43.316;5.372;2023-05-10T04:01:49;16.40;99.90
73277;DHT22;61501;43.316;5.372;2023-05-10T04:04:14;16.40;99.90
73277;DHT22;61501;43.316;5.372;2023-05-10T04:06:40;16.40;99.90
73277;DHT22;61501;43.316;5.372;2023-05-10T04:09:06;16.50;99.90
73277;DHT22;61501;43.316;5.372;2023-05-10T04:11:31;16.40;99.90
73277;DHT22;61501;43.316;5.372;2023-05-10T04:13:57;16.50;99.90
73277;DHT22;61501;43.316;5.372;2023-05-10T04:16:23;16.50;99.90
73277;DHT22;61501;43.316;5.372;2023-05-10T04:18:48;16.50;99.90
73277;DHT22;61501;43.316;5.372;2023-05-10T04:21:14;16.40;99.90
73277;DHT22;61501;43.316;5.372;2023-05-10T04:23:40;16.40;99.90
73277;DHT22;61501;43.316;5.372;2023-05-10T04:26:06;16.40;99.90
73277;DHT22;61501;43.316;5.372;2023-05-10T04:28:31;16.40;99.90
73277;DHT22;61501;43.316;5.372;2023-05-10T04:31:05;16.30;99.90
73277;DHT22;61501;43.316;5.372;2023-05-10T04:33:31;16.40;99.90
73277;DHT22;61501;43.316;5.372;2023-05-10T04:35:57;16.30;99.90
73277;DHT22;61501;43.316;5.372;2023-05-10T04:38:23;16.30;99.90
73277;DHT22;61501;43.316;5.372;2023-05-10T04:40:48;16.30;99.90
73277;DHT22;61501;43.316;5.372;2023-05-10T04:43:14;16.30;99.90
73277;DHT22;61501;43.316;5.372;2023-05-10T04:45:40;16.30;99.90
73277;DHT22;61501;43.316;5.372;2023-05-10T04:48:05;16.30;99.90
73277;DHT22;61501;43.316;5.372;2023-05-10T04:50:31;16.30;99.90
73277;DHT22;61501;43.316;5.372;2023-05-10T04:52:57;16.20;99.90
73277;DHT22;61501;43.316;5.372;2023-05-10T04:55:22;16.20;99.90
73277;DHT22;61501;43.316;5.372;2023-05-10T04:57:48;16.20;99.90
73277;DHT22;61501;43.316;5.372;2023-05-10T05:00:14;16.20;99.90
73277;DHT22;61501;43.316;5.372;2023-05-10T05:02:44;16.30;99.90
73277;DHT22;61501;43.316;5.372;2023-05-10T05:05:12;16.20;99.90
73277;DHT22;61501;43.316;5.372;2023-05-10T05:07:38;16.20;99.90
73277;DHT22;61501;43.316;5.372;2023-05-10T05:10:06;16.20;99.90
73277;DHT22;61501;43.316;5.372;2023-05-10T05:12:31;16.20;99.90
73277;DHT22;61501;43.316;5.372;2023-05-10T05:14:57;16.20;99.90
73277;DHT22;61501;43.316;5.372;2023-05-10T05:17:23;16.20;99.90
73277;DHT22;61501;43.316;5.372;2023-05-10T05:19:48;16.20;99.90
73277;DHT22;61501;43.316;5.372;2023-05-10T05:22:14;16.10;99.90
73277;DHT22;61501;43.316;5.372;2023-05-10T05:24:39;16.10;99.90
73277;DHT22;61501;43.316;5.372;2023-05-10T05:27:05;16.10;99.90
73277;DHT22;61501;43.316;5.372;2023-05-10T05:29:31;16.10;99.90
73277;DHT22;61501;43.316;5.372;2023-05-10T05:31:57;16.10;99.90
73277;DHT22;61501;43.316;5.372;2023-05-10T05:34:23;16.10;99.90
73277;DHT22;61501;43.316;5.372;2023-05-10T05:36:49;16.10;99.90
73277;DHT22;61501;43.316;5.372;2023-05-10T05:39:15;16.10;99.90
73277;DHT22;61501;43.316;5.372;2023-05-10T05:41:41;16.10;99.90
73277;DHT22;61501;43.316;5.372;2023-05-10T05:44:07;16.10;99.90
73277;DHT22;61501;43.316;5.372;2023-05-10T05:46:32;16.00;99.90
73277;DHT22;61501;43.316;5.372;2023-05-10T05:48:58;16.10;99.90
73277;DHT22;61501;43.316;5.372;2023-05-10T05:51:23;16.10;99.90
73277;DHT22;61501;43.316;5.372;2023-05-10T05:53:49;16.10;99.90
73277;DHT22;61501;43.316;5.372;2023-05-10T05:56:14;16.10;99.90
73277;DHT22;61501;43.316;5.372;2023-05-10T05:58:40;16.00;99.90
73277;DHT22;61501;43.316;5.372;2023-05-10T06:01:06;16.10;99.90
73277;DHT22;61501;43.316;5.372;2023-05-10T06:03:31;16.10;99.90
73277;DHT22;61501;43.316;5.372;2023-05-10T06:05:58;16.10;99.90
73277;DHT22;61501;43.316;5.372;2023-05-10T06:08:23;16.10;99.90
73277;DHT22;61501;43.316;5.372;2023-05-10T06:10:49;16.10;99.90
73277;DHT22;61501;43.316;5.372;2023-05-10T06:13:14;16.10;99.90
73277;DHT22;61501;43.316;5.372;2023-05-10T06:15:40;16.10;99.90
73277;DHT22;61501;43.316;5.372;2023-05-10T06:18:06;16.10;99.90
73277;DHT22;61501;43.316;5.372;2023-05-10T06:20:32;16.10;99.90
73277;DHT22;61501;43.316;5.372;2023-05-10T06:22:58;16.00;99.90
73277;DHT22;61501;43.316;5.372;2023-05-10T06:25:23;16.00;99.90
73277;DHT22;61501;43.316;5.372;2023-05-10T06:27:49;16.10;99.90
73277;DHT22;61501;43.316;5.372;2023-05-10T06:30:15;16.10;99.90
73277;DHT22;61501;43.316;5.372;2023-05-10T06:32:41;16.10;99.90
73277;DHT22;61501;43.316;5.372;2023-05-10T06:35:09;16.10;99.90
73277;DHT22;61501;43.316;5.372;2023-05-10T06:37:34;16.10;99.90
73277;DHT22;61501;43.316;5.372;2023-05-10T06:40:00;16.10;99.90
73277;DHT22;61501;43.316;5.372;2023-05-10T06:42:26;16.20;99.90
73277;DHT22;61501;43.316;5.372;2023-05-10T06:44:52;16.20;99.90
73277;DHT22;61501;43.316;5.372;2023-05-10T06:47:18;16.30;99.90
73277;DHT22;61501;43.316;5.372;2023-05-10T06:49:44;16.30;99.90
73277;DHT22;61501;43.316;5.372;2023-05-10T06:52:09;16.30;99.90
73277;DHT22;61501;43.316;5.372;2023-05-10T06:54:35;16.40;99.90
73277;DHT22;61501;43.316;5.372;2023-05-10T06:57:01;16.30;99.90
73277;DHT22;61501;43.316;5.372;2023-05-10T06:59:28;16.40;99.90
73277;DHT22;61501;43.316;5.372;2023-05-10T07:01:54;16.40;99.90
73277;DHT22;61501;43.316;5.372;2023-05-10T07:04:19;16.50;99.90
73277;DHT22;61501;43.316;5.372;2023-05-10T07:06:45;16.50;99.90
73277;DHT22;61501;43.316;5.372;2023-05-10T07:09:11;16.50;99.90
73277;DHT22;61501;43.316;5.372;2023-05-10T07:11:38;16.50;99.90
73277;DHT22;61501;43.316;5.372;2023-05-10T07:14:04;16.50;99.90
73277;DHT22;61501;43.316;5.372;2023-05-10T07:16:30;16.50;99.90
73277;DHT22;61501;43.316;5.372;2023-05-10T07:18:56;16.50;99.90
73277;DHT22;61501;43.316;5.372;2023-05-10T07:21:21;16.60;99.90
73277;DHT22;61501;43.316;5.372;2023-05-10T07:23:49;16.60;99.90
73277;DHT22;61501;43.316;5.372;2023-05-10T07:26:15;16.60;99.90
73277;DHT22;61501;43.316;5.372;2023-05-10T07:28:41;16.60;99.90
73277;DHT22;61501;43.316;5.372;2023-05-10T07:31:07;16.70;99.90
73277;DHT22;61501;43.316;5.372;2023-05-10T07:33:32;16.70;99.90
73277;DHT22;61501;43.316;5.372;2023-05-10T07:35:58;16.70;99.90
73277;DHT22;61501;43.316;5.372;2023-05-10T07:38:24;16.80;99.90
73277;DHT22;61501;43.316;5.372;2023-05-10T07:40:49;16.90;99.90
73277;DHT22;61501;43.316;5.372;2023-05-10T07:43:15;17.00;99.90
73277;DHT22;61501;43.316;5.372;2023-05-10T07:45:40;17.10;99.90
73277;DHT22;61501;43.316;5.372;2023-05-10T07:48:06;17.10;99.90
73277;DHT22;61501;43.316;5.372;2023-05-10T07:50:32;17.10;98.00
73277;DHT22;61501;43.316;5.372;2023-05-10T07:52:59;17.10;99.90
73277;DHT22;61501;43.316;5.372;2023-05-10T07:55:25;17.20;99.90
73277;DHT22;61501;43.316;5.372;2023-05-10T07:57:51;17.30;95.60
73277;DHT22;61501;43.316;5.372;2023-05-10T08:00:18;17.30;94.50
73277;DHT22;61501;43.316;5.372;2023-05-10T08:02:44;17.30;97.90
73277;DHT22;61501;43.316;5.372;2023-05-10T08:05:10;17.30;95.70
73277;DHT22;61501;43.316;5.372;2023-05-10T08:07:36;17.30;96.70
73277;DHT22;61501;43.316;5.372;2023-05-10T08:10:02;17.40;93.80
73277;DHT22;61501;43.316;5.372;2023-05-10T08:12:28;17.30;93.50
73277;DHT22;61501;43.316;5.372;2023-05-10T08:14:53;17.30;93.00
73277;DHT22;61501;43.316;5.372;2023-05-10T08:17:19;17.30;91.50
73277;DHT22;61501;43.316;5.372;2023-05-10T08:19:45;17.40;91.90
73277;DHT22;61501;43.316;5.372;2023-05-10T08:22:10;17.50;91.10
73277;DHT22;61501;43.316;5.372;2023-05-10T08:24:36;17.50;91.10
73277;DHT22;61501;43.316;5.372;2023-05-10T08:27:05;17.60;91.30
73277;DHT22;61501;43.316;5.372;2023-05-10T08:29:30;17.70;87.70
73277;DHT22;61501;43.316;5.372;2023-05-10T08:31:56;17.60;87.30
73277;DHT22;61501;43.316;5.372;2023-05-10T08:34:21;17.60;86.00
73277;DHT22;61501;43.316;5.372;2023-05-10T08:36:47;17.60;88.50
73277;DHT22;61501;43.316;5.372;2023-05-10T08:39:13;17.60;88.50
73277;DHT22;61501;43.316;5.372;2023-05-10T08:41:39;17.60;83.80
73277;DHT22;61501;43.316;5.372;2023-05-10T08:44:07;17.60;81.20
73277;DHT22;61501;43.316;5.372;2023-05-10T08:46:33;17.60;77.00
73277;DHT22;61501;43.316;5.372;2023-05-10T08:49:06;17.80;77.00
73277;DHT22;61501;43.316;5.372;2023-05-10T08:51:36;17.80;73.80
73277;DHT22;61501;43.316;5.372;2023-05-10T08:54:03;17.90;73.80
73277;DHT22;61501;43.316;5.372;2023-05-10T08:56:29;17.90;75.20
73277;DHT22;61501;43.316;5.372;2023-05-10T08:58:55;18.00;74.00
73277;DHT22;61501;43.316;5.372;2023-05-10T09:01:21;18.00;77.00
73277;DHT22;61501;43.316;5.372;2023-05-10T09:03:47;18.00;70.40
73277;DHT22;61501;43.316;5.372;2023-05-10T09:06:13;18.00;70.40
73277;DHT22;61501;43.316;5.372;2023-05-10T09:08:41;18.10;66.10
73277;DHT22;61501;43.316;5.372;2023-05-10T09:11:08;17.90;62.70
73277;DHT22;61501;43.316;5.372;2023-05-10T09:13:36;17.90;64.50
73277;DHT22;61501;43.316;5.372;2023-05-10T09:16:03;18.00;59.30
73277;DHT22;61501;43.316;5.372;2023-05-10T09:18:28;17.90;59.60
73277;DHT22;61501;43.316;5.372;2023-05-10T09:20:54;17.90;63.50
73277;DHT22;61501;43.316;5.372;2023-05-10T09:23:20;18.00;69.30
73277;DHT22;61501;43.316;5.372;2023-05-10T09:25:46;18.10;73.00
73277;DHT22;61501;43.316;5.372;2023-05-10T09:28:12;18.20;75.20
73277;DHT22;61501;43.316;5.372;2023-05-10T09:30:38;18.20;72.20
73277;DHT22;61501;43.316;5.372;2023-05-10T09:33:04;18.10;68.10
73277;DHT22;61501;43.316;5.372;2023-05-10T09:35:31;18.30;66.70
73277;DHT22;61501;43.316;5.372;2023-05-10T09:37:59;18.20;65.30
73277;DHT22;61501;43.316;5.372;2023-05-10T09:40:27;18.10;67.50
73277;DHT22;61501;43.316;5.372;2023-05-10T09:42:58;18.10;61.60
73277;DHT22;61501;43.316;5.372;2023-05-10T09:45:28;18.10;60.80
73277;DHT22;61501;43.316;5.372;2023-05-10T09:47:54;18.10;61.40
73277;DHT22;61501;43.316;5.372;2023-05-10T09:50:21;18.20;61.10
73277;DHT22;61501;43.316;5.372;2023-05-10T09:52:54;18.20;60.50
73277;DHT22;61501;43.316;5.372;2023-05-10T09:55:25;18.20;58.80
73277;DHT22;61501;43.316;5.372;2023-05-10T09:58:01;18.30;60.50
73277;DHT22;61501;43.316;5.372;2023-05-10T10:00:28;18.50;55.10
73277;DHT22;61501;43.316;5.372;2023-05-10T10:02:58;18.40;53.50
73277;DHT22;61501;43.316;5.372;2023-05-10T10:05:34;18.40;52.00
73277;DHT22;61501;43.316;5.372;2023-05-10T10:08:04;18.50;50.70
73277;DHT22;61501;43.316;5.372;2023-05-10T10:10:32;18.50;51.80
73277;DHT22;61501;43.316;5.372;2023-05-10T10:12:58;18.50;56.20
73277;DHT22;61501;43.316;5.372;2023-05-10T10:15:24;18.50;54.40
73277;DHT22;61501;43.316;5.372;2023-05-10T10:17:51;18.50;53.70
73277;DHT22;61501;43.316;5.372;2023-05-10T10:20:18;18.50;55.20
73277;DHT22;61501;43.316;5.372;2023-05-10T10:22:44;18.50;57.90
73277;DHT22;61501;43.316;5.372;2023-05-10T10:25:14;18.50;56.70
73277;DHT22;61501;43.316;5.372;2023-05-10T10:35:36;18.60;61.30
73277;DHT22;61501;43.316;5.372;2023-05-10T10:38:02;18.80;61.70
73277;DHT22;61501;43.316;5.372;2023-05-10T10:40:32;18.70;61.60
73277;DHT22;61501;43.316;5.372;2023-05-10T10:43:22;18.60;60.60
73277;DHT22;61501;43.316;5.372;2023-05-10T10:46:14;18.60;59.40
73277;DHT22;61501;43.316;5.372;2023-05-10T10:49:09;18.50;56.70
73277;DHT22;61501;43.316;5.372;2023-05-10T10:51:40;18.50;57.70
73277;DHT22;61501;43.316;5.372;2023-05-10T10:54:29;18.60;57.70
73277;DHT22;61501;43.316;5.372;2023-05-10T10:57:11;18.50;58.30
73277;DHT22;61501;43.316;5.372;2023-05-10T10:59:44;18.60;53.60
73277;DHT22;61501;43.316;5.372;2023-05-10T11:02:26;18.70;55.70
73277;DHT22;61501;43.316;5.372;2023-05-10T11:04:56;18.80;56.70
73277;DHT22;61501;43.316;5.372;2023-05-10T11:07:21;18.80;58.20
73277;DHT22;61501;43.316;5.372;2023-05-10T11:09:48;18.90;58.00
73277;DHT22;61501;43.316;5.372;2023-05-10T11:12:13;18.80;55.50
73277;DHT22;61501;43.316;5.372;2023-05-10T11:14:40;18.70;54.90
73277;DHT22;61501;43.316;5.372;2023-05-10T11:17:27;18.80;55.20
73277;DHT22;61501;43.316;5.372;2023-05-10T11:20:10;18.80;55.30
73277;DHT22;61501;43.316;5.372;2023-05-10T11:22:54;18.90;55.40
73277;DHT22;61501;43.316;5.372;2023-05-10T11:25:26;18.80;54.30
73277;DHT22;61501;43.316;5.372;2023-05-10T11:27:52;18.90;54.10
73277;DHT22;61501;43.316;5.372;2023-05-10T11:30:17;19.00;54.40
73277;DHT22;61501;43.316;5.372;2023-05-10T11:32:43;18.90;53.50
73277;DHT22;61501;43.316;5.372;2023-05-10T11:35:10;18.90;55.00
73277;DHT22;61501;43.316;5.372;2023-05-10T11:37:37;18.90;54.20
73277;DHT22;61501;43.316;5.372;2023-05-10T11:40:07;18.80;54.50
73277;DHT22;61501;43.316;5.372;2023-05-10T11:42:39;18.80;53.50
73277;DHT22;61501;43.316;5.372;2023-05-10T11:45:05;18.90;53.00
73277;DHT22;61501;43.316;5.372;2023-05-10T11:47:31;18.90;52.60
73277;DHT22;61501;43.316;5.372;2023-05-10T11:49:57;18.90;52.50
73277;DHT22;61501;43.316;5.372;2023-05-10T11:52:23;19.00;52.80
73277;DHT22;61501;43.316;5.372;2023-05-10T11:54:53;19.20;52.20
73277;DHT22;61501;43.316;5.372;2023-05-10T11:57:20;19.70;53.10
73277;DHT22;61501;43.316;5.372;2023-05-10T11:59:46;19.70;52.50
73277;DHT22;61501;43.316;5.372;2023-05-10T12:02:13;19.60;51.50
73277;DHT22;61501;43.316;5.372;2023-05-10T12:04:39;19.90;50.00
73277;DHT22;61501;43.316;5.372;2023-05-10T12:07:05;20.40;47.80
73277;DHT22;61501;43.316;5.372;2023-05-10T12:09:31;21.10;46.50
73277;DHT22;61501;43.316;5.372;2023-05-10T12:11:57;21.30;42.80
73277;DHT22;61501;43.316;5.372;2023-05-10T12:14:22;21.50;42.20
73277;DHT22;61501;43.316;5.372;2023-05-10T12:16:49;21.80;41.00
73277;DHT22;61501;43.316;5.372;2023-05-10T12:19:18;21.60;41.80
73277;DHT22;61501;43.316;5.372;2023-05-10T12:21:45;21.40;43.20
73277;DHT22;61501;43.316;5.372;2023-05-10T12:24:10;21.40;43.90
73277;DHT22;61501;43.316;5.372;2023-05-10T12:26:36;21.10;45.00
73277;DHT22;61501;43.316;5.372;2023-05-10T12:29:14;21.90;44.40
73277;DHT22;61501;43.316;5.372;2023-05-10T12:31:59;21.40;45.20
73277;DHT22;61501;43.316;5.372;2023-05-10T12:36:52;21.70;43.50
73277;DHT22;61501;43.316;5.372;2023-05-10T12:39:18;21.50;41.00
73277;DHT22;61501;43.316;5.372;2023-05-10T12:41:44;21.40;41.90
73277;DHT22;61501;43.316;5.372;2023-05-10T12:44:10;21.70;41.30
73277;DHT22;61501;43.316;5.372;2023-05-10T12:46:35;21.80;41.80
73277;DHT22;61501;43.316;5.372;2023-05-10T12:49:01;21.70;40.50
73277;DHT22;61501;43.316;5.372;2023-05-10T12:51:27;21.30;40.50
73277;DHT22;61501;43.316;5.372;2023-05-10T12:53:52;21.50;40.80
73277;DHT22;61501;43.316;5.372;2023-05-10T12:56:18;21.70;39.30
73277;DHT22;61501;43.316;5.372;2023-05-10T12:58:43;21.80;38.90
73277;DHT22;61501;43.316;5.372;2023-05-10T13:01:13;21.60;40.20
73277;DHT22;61501;43.316;5.372;2023-05-10T13:03:39;21.40;41.40
73277;DHT22;61501;43.316;5.372;2023-05-10T13:06:05;21.60;42.20
73277;DHT22;61501;43.316;5.372;2023-05-10T13:08:32;22.10;41.30
73277;DHT22;61501;43.316;5.372;2023-05-10T13:11:02;22.70;38.50
73277;DHT22;61501;43.316;5.372;2023-05-10T13:13:28;22.20;38.60
73277;DHT22;61501;43.316;5.372;2023-05-10T13:15:53;21.80;38.50
73277;DHT22;61501;43.316;5.372;2023-05-10T13:18:20;22.10;37.60
73277;DHT22;61501;43.316;5.372;2023-05-10T13:20:45;22.20;36.90
73277;DHT22;61501;43.316;5.372;2023-05-10T13:23:11;22.40;36.20
73277;DHT22;61501;43.316;5.372;2023-05-10T13:25:37;22.50;35.80
73277;DHT22;61501;43.316;5.372;2023-05-10T13:28:02;22.40;36.90
73277;DHT22;61501;43.316;5.372;2023-05-10T13:30:28;22.20;37.50
73277;DHT22;61501;43.316;5.372;2023-05-10T13:32:54;22.40;37.00
73277;DHT22;61501;43.316;5.372;2023-05-10T13:35:20;22.50;36.60
73277;DHT22;61501;43.316;5.372;2023-05-10T13:37:46;22.30;36.60
73277;DHT22;61501;43.316;5.372;2023-05-10T13:40:11;22.40;37.00
73277;DHT22;61501;43.316;5.372;2023-05-10T13:42:37;22.30;35.30
73277;DHT22;61501;43.316;5.372;2023-05-10T13:45:03;22.50;34.40
73277;DHT22;61501;43.316;5.372;2023-05-10T13:47:30;22.70;34.50
73277;DHT22;61501;43.316;5.372;2023-05-10T13:49:56;23.30;34.00
73277;DHT22;61501;43.316;5.372;2023-05-10T13:52:22;23.30;35.60
73277;DHT22;61501;43.316;5.372;2023-05-10T13:54:48;22.70;33.10
73277;DHT22;61501;43.316;5.372;2023-05-10T13:57:14;22.60;34.50
73277;DHT22;61501;43.316;5.372;2023-05-10T13:59:42;22.60;34.60
73277;DHT22;61501;43.316;5.372;2023-05-10T14:02:07;22.90;34.60
73277;DHT22;61501;43.316;5.372;2023-05-10T14:04:33;22.60;34.90
73277;DHT22;61501;43.316;5.372;2023-05-10T14:07:00;22.80;34.70
73277;DHT22;61501;43.316;5.372;2023-05-10T14:09:26;22.70;35.60
73277;DHT22;61501;43.316;5.372;2023-05-10T14:11:51;23.20;35.10
73277;DHT22;61501;43.316;5.372;2023-05-10T14:14:17;23.20;34.90
73277;DHT22;61501;43.316;5.372;2023-05-10T14:16:44;23.20;35.40
73277;DHT22;61501;43.316;5.372;2023-05-10T14:19:10;22.50;37.10
73277;DHT22;61501;43.316;5.372;2023-05-10T14:21:36;22.40;36.70
73277;DHT22;61501;43.316;5.372;2023-05-10T14:24:01;22.70;36.10
73277;DHT22;61501;43.316;5.372;2023-05-10T14:26:27;23.10;34.30
73277;DHT22;61501;43.316;5.372;2023-05-10T14:28:53;23.30;35.20
73277;DHT22;61501;43.316;5.372;2023-05-10T14:31:19;23.00;36.70
73277;DHT22;61501;43.316;5.372;2023-05-10T14:33:49;22.90;36.30
73277;DHT22;61501;43.316;5.372;2023-05-10T14:36:15;23.30;36.10
73277;DHT22;61501;43.316;5.372;2023-05-10T14:38:41;23.10;34.90
73277;DHT22;61501;43.316;5.372;2023-05-10T14:41:06;23.00;34.40
73277;DHT22;61501;43.316;5.372;2023-05-10T14:43:32;23.00;34.30
73277;DHT22;61501;43.316;5.372;2023-05-10T14:45:58;23.30;33.60
73277;DHT22;61501;43.316;5.372;2023-05-10T14:48:24;22.90;33.70
73277;DHT22;61501;43.316;5.372;2023-05-10T14:50:49;23.10;34.30
73277;DHT22;61501;43.316;5.372;2023-05-10T14:53:16;23.10;33.50
73277;DHT22;61501;43.316;5.372;2023-05-10T14:55:41;22.90;35.10
73277;DHT22;61501;43.316;5.372;2023-05-10T14:58:07;23.20;35.10
73277;DHT22;61501;43.316;5.372;2023-05-10T15:00:33;23.50;34.20
73277;DHT22;61501;43.316;5.372;2023-05-10T15:02:58;23.40;34.10
73277;DHT22;61501;43.316;5.372;2023-05-10T15:05:24;23.00;33.70
73277;DHT22;61501;43.316;5.372;2023-05-10T15:07:50;23.20;33.80
73277;DHT22;61501;43.316;5.372;2023-05-10T15:10:16;23.40;33.00
73277;DHT22;61501;43.316;5.372;2023-05-10T15:12:41;23.30;32.30
73277;DHT22;61501;43.316;5.372;2023-05-10T15:15:07;23.00;31.50
73277;DHT22;61501;43.316;5.372;2023-05-10T15:17:33;23.30;31.40
73277;DHT22;61501;43.316;5.372;2023-05-10T15:19:59;23.60;32.20
73277;DHT22;61501;43.316;5.372;2023-05-10T15:22:25;23.30;33.00
73277;DHT22;61501;43.316;5.372;2023-05-10T15:24:51;23.30;32.80
73277;DHT22;61501;43.316;5.372;2023-05-10T15:27:16;23.50;32.60
73277;DHT22;61501;43.316;5.372;2023-05-10T15:29:42;23.50;33.00
73277;DHT22;61501;43.316;5.372;2023-05-10T15:32:08;23.40;32.50
73277;DHT22;61501;43.316;5.372;2023-05-10T15:34:33;23.10;33.30
73277;DHT22;61501;43.316;5.372;2023-05-10T15:36:59;23.00;34.10
73277;DHT22;61501;43.316;5.372;2023-05-10T15:39:25;23.00;35.60
73277;DHT22;61501;43.316;5.372;2023-05-10T15:41:50;23.20;34.50
73277;DHT22;61501;43.316;5.372;2023-05-10T15:44:16;23.20;33.40
73277;DHT22;61501;43.316;5.372;2023-05-10T15:46:42;23.40;33.20
73277;DHT22;61501;43.316;5.372;2023-05-10T15:49:07;23.50;32.70
73277;DHT22;61501;43.316;5.372;2023-05-10T15:51:33;23.90;32.90
73277;DHT22;61501;43.316;5.372;2023-05-10T15:53:59;23.70;32.70
73277;DHT22;61501;43.316;5.372;2023-05-10T15:56:27;23.70;32.80
73277;DHT22;61501;43.316;5.372;2023-05-10T15:58:53;23.50;33.20